sensor_id;sensor_type;location;lat;lon;timestamp;temperature;humidity
25570;DHT22;17955;45.542;9.238;2022-09-09T00:00:31;23.50;99.90
25570;DHT22;17955;45.542;9.238;2022-09-09T00:03:05;23.30;99.90
25570;DHT22;17955;45.542;9.238;2022-09-09T00:05:41;23.50;99.90
25570;DHT22;17955;45.542;9.238;2022-09-09T00:08:18;23.30;99.90
25570;DHT22;17955;45.542;9.238;2022-09-09T00:10:51;23.40;99.90
25570;DHT22;17955;45.542;9.238;2022-09-09T00:13:26;23.40;99.90
25570;DHT22;17955;45.542;9.238;2022-09-09T00:15:59;23.40;99.90
25570;DHT22;17955;45.542;9.238;2022-09-09T00:18:45;23.40;99.90
25570;DHT22;17955;45.542;9.238;2022-09-09T00:21:14;23.50;99.90
25570;DHT22;17955;45.542;9.238;2022-09-09T00:23:47;23.30;99.90
25570;DHT22;17955;45.542;9.238;2022-09-09T00:26:26;23.30;99.90
25570;DHT22;17955;45.542;9.238;2022-09-09T00:29:03;23.40;99.90
25570;DHT22;17955;45.542;9.238;2022-09-09T00:31:31;23.40;99.90
25570;DHT22;17955;45.542;9.238;2022-09-09T00:34:02;22.90;99.90
25570;DHT22;17955;45.542;9.238;2022-09-09T00:36:32;23.40;99.90
25570;DHT22;17955;45.542;9.238;2022-09-09T00:39:03;23.20;99.90
25570;DHT22;17955;45.542;9.238;2022-09-09T00:41:40;23.20;99.90
25570;DHT22;17955;45.542;9.238;2022-09-09T00:44:28;23.30;99.90
25570;DHT22;17955;45.542;9.238;2022-09-09T00:47:12;23.20;99.90
25570;DHT22;17955;45.542;9.238;2022-09-09T00:49:52;23.10;99.90
25570;DHT22;17955;45.542;9.238;2022-09-09T00:52:32;23.20;99.90
25570;DHT22;17955;45.542;9.238;2022-09-09T00:55:07;23.30;99.90
25570;DHT22;17955;45.542;9.238;2022-09-09T00:57:38;23.40;99.90
25570;DHT22;17955;45.542;9.238;2022-09-09T01:00:22;23.20;99.90
25570;DHT22;17955;45.542;9.238;2022-09-09T01:02:59;22.80;99.90
25570;DHT22;17955;45.542;9.238;2022-09-09T01:05:34;23.00;99.90
25570;DHT22;17955;45.542;9.238;2022-09-09T01:08:07;23.00;99.90
25570;DHT22;17955;45.542;9.238;2022-09-09T01:10:43;23.00;99.90
25570;DHT22;17955;45.542;9.238;2022-09-09T01:13:24;22.90;99.90
25570;DHT22;17955;45.542;9.238;2022-09-09T01:15:53;23.00;99.90
25570;DHT22;17955;45.542;9.238;2022-09-09T01:18:23;22.80;99.90
25570;DHT22;17955;45.542;9.238;2022-09-09T01:21:01;22.90;99.90
25570;DHT22;17955;45.542;9.238;2022-09-09T01:23:45;22.90;99.90
25570;DHT22;17955;45.542;9.238;2022-09-09T01:26:26;22.80;99.90
25570;DHT22;17955;45.542;9.238;2022-09-09T01:28:55;22.80;99.90
25570;DHT22;17955;45.542;9.238;2022-09-09T01:31:34;22.70;99.90
25570;DHT22;17955;45.542;9.238;2022-09-09T01:34:09;22.80;99.90
25570;DHT22;17955;45.542;9.238;2022-09-09T01:36:42;23.00;99.90
25570;DHT22;17955;45.542;9.238;2022-09-09T01:39:11;22.70;99.90
25570;DHT22;17955;45.542;9.238;2022-09-09T01:41:41;23.00;99.90
25570;DHT22;17955;45.542;9.238;2022-09-09T01:44:11;22.90;99.90
25570;DHT22;17955;45.542;9.238;2022-09-09T01:46:41;23.20;99.90
25570;DHT22;17955;45.542;9.238;2022-09-09T01:49:15;22.90;99.90
25570;DHT22;17955;45.542;9.238;2022-09-09T01:51:43;22.60;99.90
25570;DHT22;17955;45.542;9.238;2022-09-09T01:54:13;22.90;99.90
25570;DHT22;17955;45.542;9.238;2022-09-09T01:56:52;22.70;99.90
25570;DHT22;17955;45.542;9.238;2022-09-09T01:59:45;22.90;99.90
25570;DHT22;17955;45.542;9.238;2022-09-09T02:02:18;22.80;99.90
25570;DHT22;17955;45.542;9.238;2022-09-09T02:05:07;22.80;99.90
25570;DHT22;17955;45.542;9.238;2022-09-09T02:07:40;23.10;99.90
25570;DHT22;17955;45.542;9.238;2022-09-09T02:10:21;22.80;99.90
25570;DHT22;17955;45.542;9.238;2022-09-09T02:13:07;23.10;99.90
25570;DHT22;17955;45.542;9.238;2022-09-09T02:15:42;23.00;99.90
25570;DHT22;17955;45.542;9.238;2022-09-09T02:18:12;22.80;99.90
25570;DHT22;17955;45.542;9.238;2022-09-09T02:20:41;22.70;99.90
25570;DHT22;17955;45.542;9.238;2022-09-09T02:23:11;23.20;99.90
25570;DHT22;17955;45.542;9.238;2022-09-09T02:25:41;23.10;99.90
25570;DHT22;17955;45.542;9.238;2022-09-09T02:28:20;23.00;99.90
25570;DHT22;17955;45.542;9.238;2022-09-09T02:30:50;22.90;99.90
25570;DHT22;17955;45.542;9.238;2022-09-09T02:33:27;22.90;99.90
25570;DHT22;17955;45.542;9.238;2022-09-09T02:35:56;23.00;99.90
25570;DHT22;17955;45.542;9.238;2022-09-09T02:38:30;23.00;99.90
25570;DHT22;17955;45.542;9.238;2022-09-09T02:41:05;23.20;99.90
25570;DHT22;17955;45.542;9.238;2022-09-09T02:43:35;23.20;99.90
25570;DHT22;17955;45.542;9.238;2022-09-09T02:46:17;23.30;99.90
25570;DHT22;17955;45.542;9.238;2022-09-09T02:48:55;23.20;99.90
25570;DHT22;17955;45.542;9.238;2022-09-09T02:51:35;23.40;99.90
25570;DHT22;17955;45.542;9.238;2022-09-09T02:54:10;23.30;99.90
25570;DHT22;17955;45.542;9.238;2022-09-09T02:56:46;23.10;99.90
25570;DHT22;17955;45.542;9.238;2022-09-09T02:59:17;23.30;99.90
25570;DHT22;17955;45.542;9.238;2022-09-09T03:01:44;23.20;99.90
25570;DHT22;17955;45.542;9.238;2022-09-09T03:04:12;22.70;99.90
25570;DHT22;17955;45.542;9.238;2022-09-09T03:06:40;22.90;99.90
25570;DHT22;17955;45.542;9.238;2022-09-09T03:09:16;23.20;99.90
25570;DHT22;17955;45.542;9.238;2022-09-09T03:11:43;22.90;99.90
25570;DHT22;17955;45.542;9.238;2022-09-09T03:14:11;23.20;99.90
25570;DHT22;17955;45.542;9.238;2022-09-09T03:16:39;23.40;99.90
25570;DHT22;17955;45.542;9.238;2022-09-09T03:19:06;23.20;99.90
25570;DHT22;17955;45.542;9.238;2022-09-09T03:21:33;23.30;99.90
25570;DHT22;17955;45.542;9.238;2022-09-09T03:24:01;23.20;99.90
25570;DHT22;17955;45.542;9.238;2022-09-09T03:26:29;23.30;99.90
25570;DHT22;17955;45.542;9.238;2022-09-09T03:28:57;23.30;99.90
25570;DHT22;17955;45.542;9.238;2022-09-09T03:31:26;23.50;99.90
25570;DHT22;17955;45.542;9.238;2022-09-09T03:33:57;23.30;99.90
25570;DHT22;17955;45.542;9.238;2022-09-09T03:36:26;23.30;99.90
25570;DHT22;17955;45.542;9.238;2022-09-09T03:38:54;23.40;99.90
25570;DHT22;17955;45.542;9.238;2022-09-09T03:41:23;23.30;99.90
25570;DHT22;17955;45.542;9.238;2022-09-09T03:43:50;23.20;99.90
25570;DHT22;17955;45.542;9.238;2022-09-09T03:46:17;23.20;99.90
25570;DHT22;17955;45.542;9.238;2022-09-09T03:48:45;23.40;99.90
25570;DHT22;17955;45.542;9.238;2022-09-09T03:51:13;23.30;99.90
25570;DHT22;17955;45.542;9.238;2022-09-09T03:53:41;22.60;99.90
25570;DHT22;17955;45.542;9.238;2022-09-09T03:56:09;23.00;99.90
25570;DHT22;17955;45.542;9.238;2022-09-09T03:58:37;22.90;99.90
25570;DHT22;17955;45.542;9.238;2022-09-09T04:01:09;21.60;99.90
25570;DHT22;17955;45.542;9.238;2022-09-09T04:03:40;23.00;99.90
25570;DHT22;17955;45.542;9.238;2022-09-09T04:06:10;23.20;99.90
25570;DHT22;17955;45.542;9.238;2022-09-09T04:08:41;23.30;99.90
25570;DHT22;17955;45.542;9.238;2022-09-09T04:11:09;23.20;99.90
25570;DHT22;17955;45.542;9.238;2022-09-09T04:13:38;23.10;99.90
25570;DHT22;17955;45.542;9.238;2022-09-09T04:16:07;23.30;99.90
25570;DHT22;17955;45.542;9.238;2022-09-09T04:18:36;22.90;99.90
25570;DHT22;17955;45.542;9.238;2022-09-09T04:21:03;23.10;99.90
25570;DHT22;17955;45.542;9.238;2022-09-09T04:23:33;23.00;99.90
25570;DHT22;17955;45.542;9.238;2022-09-09T04:26:02;23.10;99.90
25570;DHT22;17955;45.542;9.238;2022-09-09T04:28:34;23.00;99.90
25570;DHT22;17955;45.542;9.238;2022-09-09T04:31:07;22.70;99.90
25570;DHT22;17955;45.542;9.238;2022-09-09T04:33:36;22.80;99.90
25570;DHT22;17955;45.542;9.238;2022-09-09T04:36:04;23.30;99.90
25570;DHT22;17955;45.542;9.238;2022-09-09T04:38:32;22.70;99.90
25570;DHT22;17955;45.542;9.238;2022-09-09T04:41:01;22.40;99.90
25570;DHT22;17955;45.542;9.238;2022-09-09T04:43:29;22.20;99.90
25570;DHT22;17955;45.542;9.238;2022-09-09T04:45:56;22.40;99.90
25570;DHT22;17955;45.542;9.238;2022-09-09T04:48:25;22.20;99.90
25570;DHT22;17955;45.542;9.238;2022-09-09T04:50:56;22.60;99.90
25570;DHT22;17955;45.542;9.238;2022-09-09T04:53:23;22.80;99.90
25570;DHT22;17955;45.542;9.238;2022-09-09T04:55:51;22.20;99.90
25570;DHT22;17955;45.542;9.238;2022-09-09T04:58:20;22.30;99.90
25570;DHT22;17955;45.542;9.238;2022-09-09T05:00:49;22.50;99.90
25570;DHT22;17955;45.542;9.238;2022-09-09T05:03:17;22.50;99.90
25570;DHT22;17955;45.542;9.238;2022-09-09T05:05:45;22.40;99.90
25570;DHT22;17955;45.542;9.238;2022-09-09T05:08:12;22.50;99.90
25570;DHT22;17955;45.542;9.238;2022-09-09T05:10:39;22.30;99.90
25570;DHT22;17955;45.542;9.238;2022-09-09T05:13:08;24.90;99.90
25570;DHT22;17955;45.542;9.238;2022-09-09T05:15:37;22.70;99.90
25570;DHT22;17955;45.542;9.238;2022-09-09T05:18:04;22.40;99.90
25570;DHT22;17955;45.542;9.238;2022-09-09T05:20:31;22.50;99.90
25570;DHT22;17955;45.542;9.238;2022-09-09T05:22:59;22.60;99.90
25570;DHT22;17955;45.542;9.238;2022-09-09T05:25:28;22.30;99.90
25570;DHT22;17955;45.542;9.238;2022-09-09T05:27:56;22.40;99.90
25570;DHT22;17955;45.542;9.238;2022-09-09T05:30:25;22.30;99.90
25570;DHT22;17955;45.542;9.238;2022-09-09T05:32:55;22.30;99.90
25570;DHT22;17955;45.542;9.238;2022-09-09T05:35:22;22.20;99.90
25570;DHT22;17955;45.542;9.238;2022-09-09T05:37:49;21.90;99.90
25570;DHT22;17955;45.542;9.238;2022-09-09T05:40:16;22.00;99.90
25570;DHT22;17955;45.542;9.238;2022-09-09T05:42:45;21.80;99.90
25570;DHT22;17955;45.542;9.238;2022-09-09T05:45:12;21.40;99.90
25570;DHT22;17955;45.542;9.238;2022-09-09T05:47:39;21.50;99.90
25570;DHT22;17955;45.542;9.238;2022-09-09T05:50:10;21.50;99.90
25570;DHT22;17955;45.542;9.238;2022-09-09T05:52:38;21.40;99.90
25570;DHT22;17955;45.542;9.238;2022-09-09T05:55:07;21.20;99.90
25570;DHT22;17955;45.542;9.238;2022-09-09T05:57:34;21.30;99.90
25570;DHT22;17955;45.542;9.238;2022-09-09T06:00:02;21.30;99.90
25570;DHT22;17955;45.542;9.238;2022-09-09T06:02:39;21.20;99.90
25570;DHT22;17955;45.542;9.238;2022-09-09T06:05:10;21.10;99.90
25570;DHT22;17955;45.542;9.238;2022-09-09T06:07:37;21.10;99.90
25570;DHT22;17955;45.542;9.238;2022-09-09T06:10:08;21.30;99.90
25570;DHT22;17955;45.542;9.238;2022-09-09T06:12:35;21.00;99.90
25570;DHT22;17955;45.542;9.238;2022-09-09T06:15:03;20.80;99.90
25570;DHT22;17955;45.542;9.238;2022-09-09T06:17:31;21.00;99.90
25570;DHT22;17955;45.542;9.238;2022-09-09T06:19:58;20.40;99.90
25570;DHT22;17955;45.542;9.238;2022-09-09T06:22:26;21.40;99.90
25570;DHT22;17955;45.542;9.238;2022-09-09T06:24:53;21.00;99.90
25570;DHT22;17955;45.542;9.238;2022-09-09T06:27:21;21.00;99.90
25570;DHT22;17955;45.542;9.238;2022-09-09T06:29:48;21.30;99.90
25570;DHT22;17955;45.542;9.238;2022-09-09T06:32:16;21.00;99.90
25570;DHT22;17955;45.542;9.238;2022-09-09T06:34:43;20.90;99.90
25570;DHT22;17955;45.542;9.238;2022-09-09T06:37:11;21.00;99.90
25570;DHT22;17955;45.542;9.238;2022-09-09T06:39:44;20.90;99.90
25570;DHT22;17955;45.542;9.238;2022-09-09T06:42:11;21.00;99.90
25570;DHT22;17955;45.542;9.238;2022-09-09T06:45:01;20.60;99.90
25570;DHT22;17955;45.542;9.238;2022-09-09T06:47:42;20.90;99.90
25570;DHT22;17955;45.542;9.238;2022-09-09T06:50:10;21.00;99.90
25570;DHT22;17955;45.542;9.238;2022-09-09T06:52:38;21.00;99.90
25570;DHT22;17955;45.542;9.238;2022-09-09T06:55:09;21.10;99.90
25570;DHT22;17955;45.542;9.238;2022-09-09T06:57:37;21.90;99.90
25570;DHT22;17955;45.542;9.238;2022-09-09T07:00:10;21.40;99.90
25570;DHT22;17955;45.542;9.238;2022-09-09T07:02:40;21.40;99.90
25570;DHT22;17955;45.542;9.238;2022-09-09T07:05:08;21.50;99.90
25570;DHT22;17955;45.542;9.238;2022-09-09T07:07:37;21.30;99.90
25570;DHT22;17955;45.542;9.238;2022-09-09T07:10:05;21.40;99.90
25570;DHT22;17955;45.542;9.238;2022-09-09T07:12:35;21.40;99.90
25570;DHT22;17955;45.542;9.238;2022-09-09T07:15:04;21.40;99.90
25570;DHT22;17955;45.542;9.238;2022-09-09T07:17:31;21.30;99.90
25570;DHT22;17955;45.542;9.238;2022-09-09T07:19:59;21.60;99.90
25570;DHT22;17955;45.542;9.238;2022-09-09T07:22:27;21.30;99.90
25570;DHT22;17955;45.542;9.238;2022-09-09T07:24:55;21.40;99.90
25570;DHT22;17955;45.542;9.238;2022-09-09T07:27:22;22.00;99.90
25570;DHT22;17955;45.542;9.238;2022-09-09T07:29:51;21.50;99.90
25570;DHT22;17955;45.542;9.238;2022-09-09T07:32:21;21.70;99.90
25570;DHT22;17955;45.542;9.238;2022-09-09T07:34:48;21.50;99.90
25570;DHT22;17955;45.542;9.238;2022-09-09T07:37:16;21.70;99.90
25570;DHT22;17955;45.542;9.238;2022-09-09T07:39:44;21.80;99.90
25570;DHT22;17955;45.542;9.238;2022-09-09T07:42:12;22.00;99.90
25570;DHT22;17955;45.542;9.238;2022-09-09T07:44:40;22.10;99.90
25570;DHT22;17955;45.542;9.238;2022-09-09T07:47:13;22.20;99.90
25570;DHT22;17955;45.542;9.238;2022-09-09T07:49:46;22.00;99.90
25570;DHT22;17955;45.542;9.238;2022-09-09T07:52:18;22.40;99.90
25570;DHT22;17955;45.542;9.238;2022-09-09T07:54:46;22.30;99.90
25570;DHT22;17955;45.542;9.238;2022-09-09T07:57:13;22.70;99.90
25570;DHT22;17955;45.542;9.238;2022-09-09T07:59:42;22.70;99.90
25570;DHT22;17955;45.542;9.238;2022-09-09T08:02:10;22.80;99.90
25570;DHT22;17955;45.542;9.238;2022-09-09T08:04:39;22.70;99.90
25570;DHT22;17955;45.542;9.238;2022-09-09T08:07:06;23.10;99.90
25570;DHT22;17955;45.542;9.238;2022-09-09T08:09:39;23.10;99.90
25570;DHT22;17955;45.542;9.238;2022-09-09T08:12:16;23.10;99.90
25570;DHT22;17955;45.542;9.238;2022-09-09T08:14:44;23.20;99.90
25570;DHT22;17955;45.542;9.238;2022-09-09T08:17:11;23.30;99.90
25570;DHT22;17955;45.542;9.238;2022-09-09T08:19:39;23.50;99.90
25570;DHT22;17955;45.542;9.238;2022-09-09T08:22:11;23.00;99.90
25570;DHT22;17955;45.542;9.238;2022-09-09T08:24:39;22.90;99.90
25570;DHT22;17955;45.542;9.238;2022-09-09T08:27:07;23.10;99.90
25570;DHT22;17955;45.542;9.238;2022-09-09T08:29:36;23.00;99.90
25570;DHT22;17955;45.542;9.238;2022-09-09T08:32:04;23.00;99.90
25570;DHT22;17955;45.542;9.238;2022-09-09T08:34:32;22.90;99.90
25570;DHT22;17955;45.542;9.238;2022-09-09T08:37:04;23.30;99.90
25570;DHT22;17955;45.542;9.238;2022-09-09T08:39:36;22.90;99.90
25570;DHT22;17955;45.542;9.238;2022-09-09T08:42:28;23.30;99.90
25570;DHT22;17955;45.542;9.238;2022-09-09T08:45:27;23.20;99.90
25570;DHT22;17955;45.542;9.238;2022-09-09T08:48:14;23.30;99.90
25570;DHT22;17955;45.542;9.238;2022-09-09T08:50:44;23.30;99.90
25570;DHT22;17955;45.542;9.238;2022-09-09T08:53:22;23.50;99.90
25570;DHT22;17955;45.542;9.238;2022-09-09T08:55:53;23.60;99.90
25570;DHT22;17955;45.542;9.238;2022-09-09T08:58:32;23.30;99.90
25570;DHT22;17955;45.542;9.238;2022-09-09T09:01:17;23.60;99.90
25570;DHT22;17955;45.542;9.238;2022-09-09T09:03:57;23.40;99.90
25570;DHT22;17955;45.542;9.238;2022-09-09T09:06:38;23.40;99.90
25570;DHT22;17955;45.542;9.238;2022-09-09T09:09:15;23.50;99.90
25570;DHT22;17955;45.542;9.238;2022-09-09T09:11:48;23.40;99.90
25570;DHT22;17955;45.542;9.238;2022-09-09T09:14:19;23.40;99.90
25570;DHT22;17955;45.542;9.238;2022-09-09T09:16:53;23.80;99.90
25570;DHT22;17955;45.542;9.238;2022-09-09T09:19:21;25.80;99.90
25570;DHT22;17955;45.542;9.238;2022-09-09T09:21:56;23.90;99.90
25570;DHT22;17955;45.542;9.238;2022-09-09T09:24:31;23.90;99.90
25570;DHT22;17955;45.542;9.238;2022-09-09T09:27:12;23.80;99.90
25570;DHT22;17955;45.542;9.238;2022-09-09T09:29:43;24.20;99.90
25570;DHT22;17955;45.542;9.238;2022-09-09T09:32:16;23.90;99.90
25570;DHT22;17955;45.542;9.238;2022-09-09T09:34:49;23.70;99.90
25570;DHT22;17955;45.542;9.238;2022-09-09T09:37:20;23.90;99.90
25570;DHT22;17955;45.542;9.238;2022-09-09T09:39:50;24.10;99.90
25570;DHT22;17955;45.542;9.238;2022-09-09T09:42:18;24.10;99.90
25570;DHT22;17955;45.542;9.238;2022-09-09T09:44:47;24.40;99.90
25570;DHT22;17955;45.542;9.238;2022-09-09T09:47:19;24.20;99.90
25570;DHT22;17955;45.542;9.238;2022-09-09T09:49:56;24.30;99.90
25570;DHT22;17955;45.542;9.238;2022-09-09T09:52:26;24.30;99.90
25570;DHT22;17955;45.542;9.238;2022-09-09T09:54:57;24.30;99.90
25570;DHT22;17955;45.542;9.238;2022-09-09T09:57:27;24.50;99.90
25570;DHT22;17955;45.542;9.238;2022-09-09T10:00:14;24.40;99.90
25570;DHT22;17955;45.542;9.238;2022-09-09T10:02:48;24.60;99.90
25570;DHT22;17955;45.542;9.238;2022-09-09T10:05:23;24.40;99.90
25570;DHT22;17955;45.542;9.238;2022-09-09T10:08:05;24.80;99.90
25570;DHT22;17955;45.542;9.238;2022-09-09T10:11:09;24.30;99.90
25570;DHT22;17955;45.542;9.238;2022-09-09T10:13:51;24.60;99.90
25570;DHT22;17955;45.542;9.238;2022-09-09T10:16:29;24.50;99.90
25570;DHT22;17955;45.542;9.238;2022-09-09T10:19:01;24.70;99.90
25570;DHT22;17955;45.542;9.238;2022-09-09T10:21:56;24.50;99.90
25570;DHT22;17955;45.542;9.238;2022-09-09T10:27:32;24.90;99.90
25570;DHT22;17955;45.542;9.238;2022-09-09T10:30:03;24.80;99.90
25570;DHT22;17955;45.542;9.238;2022-09-09T10:32:48;25.10;99.90
25570;DHT22;17955;45.542;9.238;2022-09-09T10:35:30;25.10;99.90
25570;DHT22;17955;45.542;9.238;2022-09-09T10:38:20;25.50;99.90
25570;DHT22;17955;45.542;9.238;2022-09-09T10:41:11;25.30;99.90
25570;DHT22;17955;45.542;9.238;2022-09-09T10:46:36;25.40;99.90
25570;DHT22;17955;45.542;9.238;2022-09-09T10:49:16;24.60;99.90
25570;DHT22;17955;45.542;9.238;2022-09-09T10:51:52;25.20;99.90
25570;DHT22;17955;45.542;9.238;2022-09-09T10:54:36;25.00;99.90
25570;DHT22;17955;45.542;9.238;2022-09-09T10:57:11;25.20;99.90
25570;DHT22;17955;45.542;9.238;2022-09-09T10:59:45;25.00;99.90
25570;DHT22;17955;45.542;9.238;2022-09-09T11:02:17;25.50;99.90
25570;DHT22;17955;45.542;9.238;2022-09-09T11:04:50;25.50;99.90
25570;DHT22;17955;45.542;9.238;2022-09-09T11:07:27;25.30;99.60
25570;DHT22;17955;45.542;9.238;2022-09-09T11:09:59;25.40;99.70
25570;DHT22;17955;45.542;9.238;2022-09-09T11:12:28;25.50;99.60
25570;DHT22;17955;45.542;9.238;2022-09-09T11:15:01;25.30;99.50
25570;DHT22;17955;45.542;9.238;2022-09-09T11:17:36;25.60;99.20
25570;DHT22;17955;45.542;9.238;2022-09-09T11:20:06;25.50;98.90
25570;DHT22;17955;45.542;9.238;2022-09-09T11:22:39;25.60;98.50
25570;DHT22;17955;45.542;9.238;2022-09-09T11:25:15;23.50;97.70
25570;DHT22;17955;45.542;9.238;2022-09-09T11:27:54;25.70;98.30
25570;DHT22;17955;45.542;9.238;2022-09-09T11:30:29;25.60;98.30
25570;DHT22;17955;45.542;9.238;2022-09-09T11:33:20;25.80;98.10
25570;DHT22;17955;45.542;9.238;2022-09-09T11:38:52;26.00;97.50
25570;DHT22;17955;45.542;9.238;2022-09-09T11:41:21;26.20;96.90
25570;DHT22;17955;45.542;9.238;2022-09-09T11:43:49;26.20;96.50
25570;DHT22;17955;45.542;9.238;2022-09-09T11:46:21;26.20;96.80
25570;DHT22;17955;45.542;9.238;2022-09-09T11:48:59;26.10;96.70
25570;DHT22;17955;45.542;9.238;2022-09-09T11:51:28;25.80;97.00
25570;DHT22;17955;45.542;9.238;2022-09-09T11:53:57;25.70;96.90
25570;DHT22;17955;45.542;9.238;2022-09-09T11:56:29;25.50;97.00
25570;DHT22;17955;45.542;9.238;2022-09-09T11:58:59;25.60;97.20
25570;DHT22;17955;45.542;9.238;2022-09-09T12:01:48;25.70;97.10
25570;DHT22;17955;45.542;9.238;2022-09-09T12:04:33;25.70;97.20
25570;DHT22;17955;45.542;9.238;2022-09-09T12:07:05;26.00;97.20
25570;DHT22;17955;45.542;9.238;2022-09-09T12:09:42;25.60;97.10
25570;DHT22;17955;45.542;9.238;2022-09-09T12:12:25;25.80;97.00
25570;DHT22;17955;45.542;9.238;2022-09-09T12:14:59;25.80;97.00
25570;DHT22;17955;45.542;9.238;2022-09-09T12:17:29;25.70;97.00
25570;DHT22;17955;45.542;9.238;2022-09-09T12:20:03;27.30;98.20
25570;DHT22;17955;45.542;9.238;2022-09-09T12:22:39;25.70;98.00
25570;DHT22;17955;45.542;9.238;2022-09-09T12:25:18;25.80;97.90
25570;DHT22;17955;45.542;9.238;2022-09-09T12:27:58;26.00;97.70
25570;DHT22;17955;45.542;9.238;2022-09-09T12:30:29;26.00;96.90
25570;DHT22;17955;45.542;9.238;2022-09-09T12:33:10;26.10;96.80
25570;DHT22;17955;45.542;9.238;2022-09-09T12:35:38;26.00;96.90
25570;DHT22;17955;45.542;9.238;2022-09-09T12:38:13;26.10;96.30
25570;DHT22;17955;45.542;9.238;2022-09-09T12:40:41;26.10;96.50
25570;DHT22;17955;45.542;9.238;2022-09-09T12:43:19;26.20;96.70
25570;DHT22;17955;45.542;9.238;2022-09-09T12:45:47;26.40;96.70
25570;DHT22;17955;45.542;9.238;2022-09-09T12:48:18;26.20;96.30
25570;DHT22;17955;45.542;9.238;2022-09-09T12:50:50;26.40;96.30
25570;DHT22;17955;45.542;9.238;2022-09-09T12:53:22;26.70;96.20
25570;DHT22;17955;45.542;9.238;2022-09-09T12:55:54;26.60;96.00
25570;DHT22;17955;45.542;9.238;2022-09-09T12:58:22;26.70;95.90
25570;DHT22;17955;45.542;9.238;2022-09-09T13:00:51;26.70;95.30
25570;DHT22;17955;45.542;9.238;2022-09-09T13:03:21;26.70;95.60
25570;DHT22;17955;45.542;9.238;2022-09-09T13:05:50;26.50;95.70
25570;DHT22;17955;45.542;9.238;2022-09-09T13:08:24;26.70;95.80
25570;DHT22;17955;45.542;9.238;2022-09-09T13:10:56;26.50;95.70
25570;DHT22;17955;45.542;9.238;2022-09-09T13:13:27;26.50;95.40
25570;DHT22;17955;45.542;9.238;2022-09-09T13:15:57;26.50;95.50
25570;DHT22;17955;45.542;9.238;2022-09-09T13:18:28;26.60;95.50
25570;DHT22;17955;45.542;9.238;2022-09-09T13:20:56;26.50;95.10
25570;DHT22;17955;45.542;9.238;2022-09-09T13:23:30;26.70;94.80
25570;DHT22;17955;45.542;9.238;2022-09-09T13:25:58;26.50;94.80
25570;DHT22;17955;45.542;9.238;2022-09-09T13:28:28;26.50;95.10
25570;DHT22;17955;45.542;9.238;2022-09-09T13:30:59;25.70;94.60
25570;DHT22;17955;45.542;9.238;2022-09-09T13:33:33;26.50;94.70
25570;DHT22;17955;45.542;9.238;2022-09-09T13:36:04;26.70;94.50
25570;DHT22;17955;45.542;9.238;2022-09-09T13:38:33;26.60;94.30
25570;DHT22;17955;45.542;9.238;2022-09-09T13:41:04;26.60;94.50
25570;DHT22;17955;45.542;9.238;2022-09-09T13:43:34;26.40;94.70
25570;DHT22;17955;45.542;9.238;2022-09-09T13:46:05;26.60;94.50
25570;DHT22;17955;45.542;9.238;2022-09-09T13:48:34;26.70;94.00
25570;DHT22;17955;45.542;9.238;2022-09-09T13:51:02;26.80;93.80
25570;DHT22;17955;45.542;9.238;2022-09-09T13:53:30;26.70;93.80
25570;DHT22;17955;45.542;9.238;2022-09-09T13:55:58;26.80;93.70
25570;DHT22;17955;45.542;9.238;2022-09-09T13:58:25;26.80;93.50
25570;DHT22;17955;45.542;9.238;2022-09-09T14:00:55;26.90;93.70
25570;DHT22;17955;45.542;9.238;2022-09-09T14:03:23;26.70;93.60
25570;DHT22;17955;45.542;9.238;2022-09-09T14:05:54;26.80;93.50
25570;DHT22;17955;45.542;9.238;2022-09-09T14:08:29;26.70;93.60
25570;DHT22;17955;45.542;9.238;2022-09-09T14:11:02;26.50;93.40
25570;DHT22;17955;45.542;9.238;2022-09-09T14:13:31;26.70;93.70
25570;DHT22;17955;45.542;9.238;2022-09-09T14:15:58;26.70;93.50
25570;DHT22;17955;45.542;9.238;2022-09-09T14:18:25;26.80;93.40
25570;DHT22;17955;45.542;9.238;2022-09-09T14:20:51;26.80;93.40
25570;DHT22;17955;45.542;9.238;2022-09-09T14:23:20;26.70;93.30
25570;DHT22;17955;45.542;9.238;2022-09-09T14:25:47;26.70;92.90
25570;DHT22;17955;45.542;9.238;2022-09-09T14:28:14;26.80;92.70
25570;DHT22;17955;45.542;9.238;2022-09-09T14:30:44;26.90;92.30
25570;DHT22;17955;45.542;9.238;2022-09-09T14:33:14;27.00;92.30
25570;DHT22;17955;45.542;9.238;2022-09-09T14:35:42;26.90;92.20
25570;DHT22;17955;45.542;9.238;2022-09-09T14:38:09;26.90;92.10
25570;DHT22;17955;45.542;9.238;2022-09-09T14:40:38;26.80;92.10
25570;DHT22;17955;45.542;9.238;2022-09-09T14:43:05;26.80;91.90
25570;DHT22;17955;45.542;9.238;2022-09-09T14:45:32;26.70;92.00
25570;DHT22;17955;45.542;9.238;2022-09-09T14:48:03;26.80;91.80
25570;DHT22;17955;45.542;9.238;2022-09-09T14:50:30;26.80;91.80
25570;DHT22;17955;45.542;9.238;2022-09-09T14:52:57;26.80;91.70
25570;DHT22;17955;45.542;9.238;2022-09-09T14:55:26;26.80;91.90
25570;DHT22;17955;45.542;9.238;2022-09-09T14:57:59;26.80;91.90
25570;DHT22;17955;45.542;9.238;2022-09-09T15:00:26;26.70;92.00
25570;DHT22;17955;45.542;9.238;2022-09-09T15:02:53;26.80;91.60
25570;DHT22;17955;45.542;9.238;2022-09-09T15:05:21;26.80;91.60
25570;DHT22;17955;45.542;9.238;2022-09-09T15:07:50;26.00;91.10
25570;DHT22;17955;45.542;9.238;2022-09-09T15:10:17;26.80;91.50
25570;DHT22;17955;45.542;9.238;2022-09-09T15:12:44;26.80;91.50
25570;DHT22;17955;45.542;9.238;2022-09-09T15:15:13;26.90;91.40
25570;DHT22;17955;45.542;9.238;2022-09-09T15:17:41;26.90;91.40
25570;DHT22;17955;45.542;9.238;2022-09-09T15:20:09;26.60;91.50
25570;DHT22;17955;45.542;9.238;2022-09-09T15:22:36;26.80;91.10
25570;DHT22;17955;45.542;9.238;2022-09-09T15:25:04;26.80;91.20
25570;DHT22;17955;45.542;9.238;2022-09-09T15:27:33;26.90;91.30
25570;DHT22;17955;45.542;9.238;2022-09-09T15:30:00;26.90;91.30
25570;DHT22;17955;45.542;9.238;2022-09-09T15:32:29;28.20;92.00
25570;DHT22;17955;45.542;9.238;2022-09-09T15:34:56;27.00;91.40
25570;DHT22;17955;45.542;9.238;2022-09-09T15:37:23;26.90;91.50
25570;DHT22;17955;45.542;9.238;2022-09-09T15:39:50;26.80;91.50
25570;DHT22;17955;45.542;9.238;2022-09-09T15:42:17;26.90;91.50
25570;DHT22;17955;45.542;9.238;2022-09-09T15:44:44;26.90;91.50
25570;DHT22;17955;45.542;9.238;2022-09-09T15:47:12;26.90;91.60
25570;DHT22;17955;45.542;9.238;2022-09-09T15:49:42;26.90;91.50
25570;DHT22;17955;45.542;9.238;2022-09-09T15:52:10;26.70;91.20
25570;DHT22;17955;45.542;9.238;2022-09-09T15:54:37;26.70;91.20
25570;DHT22;17955;45.542;9.238;2022-09-09T15:57:07;26.70;91.00
25570;DHT22;17955;45.542;9.238;2022-09-09T15:59:39;26.60;91.10
25570;DHT22;17955;45.542;9.238;2022-09-09T16:02:06;26.70;91.10
25570;DHT22;17955;45.542;9.238;2022-09-09T16:04:33;26.60;91.00
25570;DHT22;17955;45.542;9.238;2022-09-09T16:07:03;26.60;91.00